Time;durP1;ratioP1;P1;durP2;ratioP2;P2;SDS_P1;SDS_P2;PMS_P1;PMS_P2;Temp;Humidity;BMP_temperature;BMP_pressure;BME280_temperature;BME280_humidity;BME280_pressure;Samples;Min_cycle;Max_cycle;Signal;HPM_P1;HPM_P2
2024/03/29 01:44:29;;;;;;;2.25;0.90;;;;;;;9.26;36.87;98955.25;4966072;28;20513;-73
2024/03/29 01:46:56;;;;;;;2.42;0.80;;;;;;;9.27;37.33;98962.41;4981228;28;20046;-73
2024/03/29 01:49:23;;;;;;;2.45;0.90;;;;;;;9.25;37.32;98958.13;4984792;28;20401;-73
2024/03/29 01:51:51;;;;;;;1.55;0.80;;;;;;;9.26;37.20;98933.41;5001223;28;20049;-73
2024/03/29 01:54:19;;;;;;;3.13;0.95;;;;;;;9.25;37.20;98937.16;5004170;28;20573;-73
2024/03/29 01:56:46;;;;;;;2.22;0.82;;;;;;;9.23;37.35;98922.00;5001357;28;20053;-73
2024/03/29 01:59:17;;;;;;;1.85;0.95;;;;;;;9.26;37.14;98916.19;5005975;28;20050;-73
2024/03/29 02:01:46;;;;;;;2.45;0.80;;;;;;;9.24;37.29;98910.06;4980168;28;20031;-73
2024/03/29 02:04:13;;;;;;;2.03;0.90;;;;;;;9.24;37.01;98915.53;5002877;28;20531;-73
2024/03/29 02:06:40;;;;;;;2.60;0.70;;;;;;;9.23;37.04;98914.66;4999199;28;20375;-73
2024/03/29 02:09:07;;;;;;;2.20;0.70;;;;;;;9.22;37.27;98896.59;5002006;28;20042;-73
2024/03/29 02:11:35;;;;;;;2.08;0.90;;;;;;;9.24;37.18;98885.50;5006176;28;20045;-73
2024/03/29 02:14:02;;;;;;;1.92;0.75;;;;;;;9.25;36.79;98885.28;4987603;28;20034;-73
2024/03/29 02:16:30;;;;;;;2.20;0.82;;;;;;;9.26;37.19;98883.41;5000475;28;20034;-73
2024/03/29 02:18:57;;;;;;;1.52;0.80;;;;;;;9.25;36.86;98885.28;5002784;28;20026;-73
2024/03/29 02:21:24;;;;;;;1.58;0.80;;;;;;;9.28;37.06;98887.69;5004859;28;20038;-73
2024/03/29 02:24:00;;;;;;;2.60;0.80;;;;;;;9.32;36.54;98880.88;4997172;28;20504;-73
2024/03/29 02:26:31;;;;;;;2.33;0.70;;;;;;;9.31;37.33;98895.53;4999898;28;20049;-73
2024/03/29 02:28:58;;;;;;;1.85;0.85;;;;;;;9.32;37.00;98897.25;5000823;28;20072;-73
2024/03/29 02:31:25;;;;;;;3.20;0.90;;;;;;;9.34;37.27;98902.50;5003295;28;20519;-73
2024/03/29 02:33:51;;;;;;;2.05;1.05;;;;;;;9.34;37.15;98900.63;4981198;28;20042;-73
2024/03/29 02:36:18;;;;;;;2.85;0.90;;;;;;;9.36;37.22;98898.59;5000699;28;20049;-73
2024/03/29 02:38:45;;;;;;;2.95;1.40;;;;;;;9.38;37.14;98909.34;5004426;28;20033;-73
2024/03/29 02:41:13;;;;;;;1.85;0.90;;;;;;;9.39;37.11;98903.75;4999771;28;20038;-73
2024/03/29 02:43:40;;;;;;;3.55;0.98;;;;;;;9.39;36.86;98902.88;4988869;28;20050;-73
2024/03/29 02:46:06;;;;;;;2.63;0.90;;;;;;;9.39;36.79;98908.34;5003961;28;20045;-73
2024/03/29 02:48:33;;;;;;;2.15;1.00;;;;;;;9.40;37.03;98915.53;5002425;28;20042;-73
2024/03/29 02:50:59;;;;;;;3.40;0.77;;;;;;;9.39;37.21;98892.81;5002343;28;20047;-73
2024/03/29 02:53:26;;;;;;;2.10;0.90;;;;;;;9.41;36.72;98900.84;5002641;28;20105;-73
2024/03/29 02:55:52;;;;;;;1.88;0.77;;;;;;;9.41;37.37;98909.84;5002029;28;20088;-73
2024/03/29 02:58:20;;;;;;;3.42;1.05;;;;;;;9.41;37.33;98912.59;5003482;28;20363;-73
2024/03/29 03:00:46;;;;;;;3.22;0.80;;;;;;;9.42;37.43;98918.91;4985828;28;20075;-73
2024/03/29 03:03:15;;;;;;;1.98;0.70;;;;;;;9.43;37.30;98888.69;4996584;28;20305;-73
2024/03/29 03:05:41;;;;;;;2.13;0.90;;;;;;;9.38;37.70;98891.13;5004006;28;20093;-73
2024/03/29 03:11:00;;;;;;;1.88;0.70;;;;;;;9.37;37.87;98900.31;5004734;28;20123;-73
2024/03/29 03:13:29;;;;;;;0.90;0.60;;;;;;;9.41;37.77;98900.84;4995358;28;20517;-73
2024/03/29 03:15:57;;;;;;;2.05;0.80;;;;;;;9.38;37.94;98885.66;4999940;28;20037;-73
2024/03/29 03:18:23;;;;;;;1.70;0.73;;;;;;;9.39;37.59;98900.16;5002128;28;20061;-73
2024/03/29 03:20:53;;;;;;;2.28;0.70;;;;;;;9.40;37.94;98900.00;5003569;28;20045;-73
2024/03/29 03:23:19;;;;;;;2.85;1.00;;;;;;;9.40;37.88;98896.41;4976917;28;20038;-73
2024/03/29 03:25:47;;;;;;;1.92;0.77;;;;;;;9.39;38.33;98889.25;4988328;28;20049;-73
2024/03/29 03:28:13;;;;;;;1.85;0.65;;;;;;;9.40;38.01;98888.22;5006519;28;20053;-73
2024/03/29 03:30:42;;;;;;;3.28;0.90;;;;;;;9.39;37.99;98879.19;4987687;28;20042;-73
2024/03/29 03:33:08;;;;;;;1.98;0.70;;;;;;;9.39;38.15;98870.13;4984372;28;20046;-73
2024/03/29 03:35:34;;;;;;;2.35;0.73;;;;;;;9.39;38.26;98878.31;4981696;28;20038;-73
2024/03/29 03:38:00;;;;;;;2.05;0.70;;;;;;;9.38;38.17;98868.38;4981209;28;20061;-73
2024/03/29 03:40:27;;;;;;;2.25;0.80;;;;;;;9.37;38.00;98866.69;4995564;28;20038;-73
2024/03/29 03:42:53;;;;;;;1.13;0.80;;;;;;;9.37;38.33;98862.06;5003550;28;20408;-73
2024/03/29 03:45:20;;;;;;;1.92;0.90;;;;;;;9.36;37.76;98871.28;5000416;28;20049;-73
2024/03/29 03:47:48;;;;;;;1.55;0.80;;;;;;;9.38;38.14;98874.75;4998406;28;20527;-73
2024/03/29 03:50:15;;;;;;;1.95;0.90;;;;;;;9.37;37.96;98875.72;4998303;28;20424;-73
2024/03/29 03:52:41;;;;;;;3.08;0.73;;;;;;;9.38;38.13;98865.66;5003342;28;20037;-73
2024/03/29 03:55:08;;;;;;;2.85;1.50;;;;;;;9.36;38.07;98871.28;4986208;28;20042;-73
2024/03/29 03:57:34;;;;;;;2.60;0.98;;;;;;;9.36;38.34;98874.03;4987884;28;20046;-74
2024/03/29 04:00:02;;;;;;;1.55;1.00;;;;;;;9.37;38.08;98870.28;4986961;28;20121;-73
2024/03/29 04:02:38;;;;;;;1.55;0.75;;;;;;;9.36;38.27;98879.47;5001344;28;20038;-73
2024/03/29 04:05:08;;;;;;;2.70;0.80;;;;;;;9.38;38.00;98899.31;4982297;28;20050;-73
2024/03/29 04:07:33;;;;;;;2.22;0.88;;;;;;;9.37;38.13;98896.72;5002874;28;20052;-73
2024/03/29 04:10:00;;;;;;;1.90;0.90;;;;;;;9.37;37.81;98907.63;5002054;28;20065;-73
2024/03/29 04:12:26;;;;;;;3.78;1.05;;;;;;;9.36;37.96;98895.84;4995181;28;20041;-73
2024/03/29 04:14:53;;;;;;;4.03;1.00;;;;;;;9.37;37.47;98893.97;5005094;28;20046;-73
2024/03/29 04:17:22;;;;;;;1.63;0.60;;;;;;;9.37;37.96;98893.97;4999423;28;20505;-73
2024/03/29 04:19:49;;;;;;;1.58;0.77;;;;;;;9.38;37.94;98890.22;4983795;28;20453;-73
2024/03/29 04:22:16;;;;;;;2.65;1.00;;;;;;;9.40;37.57;98890.94;4993320;28;20097;-73
2024/03/29 04:24:43;;;;;;;1.35;0.70;;;;;;;9.39;37.72;98878.31;4998776;28;20481;-73
2024/03/29 04:27:09;;;;;;;1.63;0.85;;;;;;;9.39;38.05;98884.63;5006833;28;20043;-73
2024/03/29 04:29:36;;;;;;;2.60;0.90;;;;;;;9.39;37.78;98887.38;5002758;28;20552;-73
2024/03/29 04:32:02;;;;;;;2.33;0.75;;;;;;;9.41;37.47;98898.13;5001383;28;20042;-73
2024/03/29 04:34:29;;;;;;;1.77;0.77;;;;;;;9.41;37.60;98895.38;5004845;28;20034;-72
2024/03/29 04:36:56;;;;;;;1.67;0.90;;;;;;;9.40;38.09;98886.34;5004225;28;20041;-73
2024/03/29 04:39:24;;;;;;;2.80;1.10;;;;;;;9.42;37.82;98883.41;4992507;28;20049;-72
2024/03/29 04:41:51;;;;;;;2.10;0.70;;;;;;;9.39;38.21;98883.78;5002569;28;20053;-73
2024/03/29 04:44:25;;;;;;;1.60;0.88;;;;;;;9.42;38.60;98878.81;5003568;28;20042;-72
2024/03/29 04:46:53;;;;;;;1.23;0.70;;;;;;;9.40;38.12;98883.63;5004926;28;20424;-73
2024/03/29 04:49:24;;;;;;;2.70;0.90;;;;;;;9.39;38.41;98883.78;5003662;28;20084;-72
2024/03/29 04:51:51;;;;;;;2.50;0.90;;;;;;;9.38;38.49;98863.81;4992495;28;20181;-73
2024/03/29 04:54:18;;;;;;;1.85;0.90;;;;;;;9.38;38.54;98885.66;5005827;28;20465;-73
2024/03/29 04:56:47;;;;;;;2.17;0.90;;;;;;;9.38;38.38;98876.59;5008212;28;20268;-73
2024/03/29 04:59:16;;;;;;;2.58;0.80;;;;;;;9.36;38.92;98878.63;4999578;28;20058;-73
2024/03/29 05:01:44;;;;;;;2.10;0.90;;;;;;;9.35;38.97;98868.72;5005343;28;20516;-72
2024/03/29 05:04:11;;;;;;;1.42;0.88;;;;;;;9.35;38.75;98866.00;4998433;28;20050;-72
2024/03/29 05:06:38;;;;;;;1.55;0.80;;;;;;;9.33;39.41;98855.25;5007135;28;20441;-72
2024/03/29 05:09:05;;;;;;;2.08;0.88;;;;;;;9.32;38.77;98841.81;5004798;28;20046;-72
2024/03/29 05:11:32;;;;;;;1.70;0.80;;;;;;;9.29;39.29;98840.25;5001595;28;20038;-72
2024/03/29 05:14:02;;;;;;;2.17;0.90;;;;;;;9.30;39.44;98850.16;5007106;28;20084;-73
2024/03/29 05:16:29;;;;;;;1.42;0.75;;;;;;;9.28;39.34;98865.00;4984909;28;20492;-73
2024/03/29 05:18:56;;;;;;;4.53;1.23;;;;;;;9.26;39.91;98859.72;5000628;28;20088;-73
2024/03/29 05:21:23;;;;;;;2.88;0.85;;;;;;;9.24;39.42;98842.69;4987000;28;20042;-73
2024/03/29 05:23:49;;;;;;;1.85;0.90;;;;;;;9.24;39.75;98847.28;4985443;28;20105;-74
2024/03/29 05:26:16;;;;;;;1.52;0.70;;;;;;;9.21;39.82;98844.91;4982451;28;20050;-73
2024/03/29 05:28:43;;;;;;;1.55;0.82;;;;;;;9.20;39.76;98851.38;4982257;28;20457;-73
2024/03/29 05:31:14;;;;;;;3.17;0.82;;;;;;;9.21;40.33;98855.81;4972826;28;20042;-73
2024/03/29 05:33:41;;;;;;;1.40;0.80;;;;;;;9.18;40.07;98853.41;4976442;28;20050;-73
2024/03/29 05:36:10;;;;;;;2.80;0.85;;;;;;;9.18;40.38;98854.28;4981561;28;20109;-73
2024/03/29 05:38:37;;;;;;;3.20;1.00;;;;;;;9.16;40.16;98856.34;4982239;28;20505;-73
2024/03/29 05:41:05;;;;;;;1.88;0.80;;;;;;;9.16;40.31;98861.81;4986923;28;20062;-73
2024/03/29 05:43:32;;;;;;;3.45;1.00;;;;;;;9.14;40.27;98857.53;4986132;28;20049;-73
2024/03/29 05:46:00;;;;;;;2.22;0.88;;;;;;;9.14;40.50;98849.34;4985835;28;20517;-73
2024/03/29 05:48:28;;;;;;;1.85;0.90;;;;;;;9.12;40.36;98837.75;4967413;28;20038;-73
2024/03/29 05:50:55;;;;;;;1.30;0.80;;;;;;;9.09;40.60;98839.78;4984148;28;20049;-73
2024/03/29 05:53:22;;;;;;;1.30;0.70;;;;;;;9.06;40.44;98842.88;4984736;28;20042;-72
2024/03/29 05:55:49;;;;;;;1.98;1.10;;;;;;;9.06;40.86;98834.69;4969773;28;20049;-74
2024/03/29 05:58:18;;;;;;;2.00;0.80;;;;;;;9.04;40.64;98825.84;4968486;28;20042;-75
2024/03/29 06:00:45;;;;;;;1.92;0.98;;;;;;;9.04;40.66;98833.16;4985891;28;20073;-74
2024/03/29 06:03:12;;;;;;;2.45;1.00;;;;;;;9.03;41.15;98840.50;4969359;28;20067;-75
2024/03/29 06:05:41;;;;;;;1.75;0.90;;;;;;;9.02;41.28;98836.06;4967840;28;20399;-74
2024/03/29 06:08:09;;;;;;;2.70;1.25;;;;;;;9.00;41.11;98840.00;4979866;28;20046;-75
2024/03/29 06:10:36;;;;;;;2.60;0.90;;;;;;;8.98;40.93;98834.72;4962000;28;20047;-74
2024/03/29 06:13:10;;;;;;;3.42;1.00;;;;;;;8.96;41.20;98834.03;4976829;28;20039;-75
2024/03/29 06:18:21;;;;;;;2.55;0.90;;;;;;;8.90;41.39;98829.28;4982629;28;20043;-74
2024/03/29 06:20:50;;;;;;;2.63;0.95;;;;;;;8.91;41.38;98825.53;4980232;28;20048;-74
2024/03/29 06:23:17;;;;;;;3.00;1.30;;;;;;;8.87;41.28;98835.06;4969487;28;20391;-75
2024/03/29 06:25:45;;;;;;;3.35;1.20;;;;;;;8.86;41.77;98833.34;4967581;28;20046;-74
2024/03/29 06:28:12;;;;;;;2.03;1.02;;;;;;;8.85;41.94;98833.53;4968716;28;20263;-75
2024/03/29 06:30:41;;;;;;;2.78;1.17;;;;;;;8.83;41.87;98841.91;4976742;28;20582;-75
2024/03/29 06:33:08;;;;;;;4.00;1.17;;;;;;;8.82;42.03;98842.06;4981599;28;20422;-76
2024/03/29 06:35:35;;;;;;;2.30;1.10;;;;;;;8.81;42.07;98837.63;4963051;28;20038;-75
2024/03/29 06:38:04;;;;;;;2.60;1.00;;;;;;;8.81;42.82;98843.94;4980773;28;20445;-75
2024/03/29 06:40:31;;;;;;;2.00;1.10;;;;;;;8.79;42.66;98848.72;4970485;28;20540;-75
2024/03/29 06:42:59;;;;;;;2.72;1.30;;;;;;;8.80;42.90;98835.94;4967734;28;20502;-75
2024/03/29 06:45:26;;;;;;;3.83;1.25;;;;;;;8.78;42.61;98841.56;4986579;28;20061;-74
2024/03/29 06:47:53;;;;;;;2.25;1.13;;;;;;;8.79;42.75;98845.13;4966871;28;20038;-75
2024/03/29 06:50:20;;;;;;;2.53;1.10;;;;;;;8.79;42.84;98842.41;4976253;28;20047;-75
2024/03/29 06:52:47;;;;;;;2.80;1.00;;;;;;;8.79;42.96;98856.03;4973566;28;20038;-74
2024/03/29 06:55:15;;;;;;;2.67;1.10;;;;;;;8.81;42.75;98843.09;4980239;28;20043;-75
2024/03/29 06:57:44;;;;;;;2.05;1.17;;;;;;;8.79;43.12;98850.59;4976378;28;20473;-75
2024/03/29 07:00:12;;;;;;;3.53;1.20;;;;;;;8.81;43.28;98849.41;4977471;28;20061;-75
2024/03/29 07:02:39;;;;;;;2.42;1.02;;;;;;;8.80;43.36;98853.16;4975419;28;20035;-74
2024/03/29 07:05:07;;;;;;;3.05;1.30;;;;;;;8.82;43.33;98864.75;4963599;28;20073;-75
2024/03/29 07:07:34;;;;;;;2.47;1.30;;;;;;;8.83;43.33;98847.38;4973714;28;20521;-75
2024/03/29 07:10:01;;;;;;;3.17;1.27;;;;;;;8.83;43.47;98850.09;4976859;28;20049;-74
2024/03/29 07:12:29;;;;;;;4.78;1.75;;;;;;;8.85;43.68;98858.06;4958929;28;20053;-75
2024/03/29 07:14:56;;;;;;;2.85;1.30;;;;;;;8.85;43.58;98852.63;4978374;28;20034;-76
2024/03/29 07:17:23;;;;;;;3.80;1.33;;;;;;;8.86;43.86;98860.63;4966572;28;20077;-75
2024/03/29 07:19:50;;;;;;;2.80;1.23;;;;;;;8.88;43.77;98865.94;4978319;28;20291;-74
2024/03/29 07:22:17;;;;;;;3.65;1.23;;;;;;;8.89;44.06;98863.03;4978239;28;20501;-75
2024/03/29 07:24:44;;;;;;;2.28;1.10;;;;;;;8.92;44.05;98870.00;4965952;28;20513;-75
2024/03/29 07:27:12;;;;;;;2.92;1.25;;;;;;;8.93;44.15;98867.09;4980012;28;20150;-75
2024/03/29 07:29:42;;;;;;;2.28;1.00;;;;;;;8.96;44.16;98872.22;4982384;28;20069;-76
2024/03/29 07:32:09;;;;;;;3.40;1.30;;;;;;;8.97;44.14;98886.72;4977772;28;20445;-76
2024/03/29 07:34:39;;;;;;;1.67;0.90;;;;;;;9.01;44.19;98888.06;4964305;28;20077;-75
2024/03/29 07:37:06;;;;;;;2.60;1.15;;;;;;;9.02;44.32;98887.91;4962139;28;20113;-76
2024/03/29 07:39:32;;;;;;;2.45;1.05;;;;;;;9.06;44.14;98896.59;4977179;28;20061;-74
2024/03/29 07:41:59;;;;;;;2.10;1.20;;;;;;;9.07;44.16;98893.72;4981324;28;20038;-75
2024/03/29 07:44:26;;;;;;;3.15;1.00;;;;;;;9.09;44.21;98902.56;4978741;28;20054;-75
2024/03/29 07:46:55;;;;;;;2.30;1.10;;;;;;;9.15;44.15;98909.22;4964892;28;20523;-74
2024/03/29 07:49:22;;;;;;;1.80;0.80;;;;;;;9.16;44.67;98905.47;4965851;28;20393;-75
2024/03/29 07:51:49;;;;;;;1.98;0.90;;;;;;;9.19;44.32;98912.44;4982886;28;20038;-75
2024/03/29 07:54:16;;;;;;;1.67;0.82;;;;;;;9.21;44.53;98919.44;4960290;28;20286;-75
2024/03/29 07:56:43;;;;;;;3.05;0.90;;;;;;;9.24;44.39;98912.78;4981599;28;20093;-75
2024/03/29 08:02:58;;;;;;;1.65;0.90;;;;;;;9.28;45.89;98898.59;4995995;28;20624;-84
2024/03/29 09:56:31;;;;;;;0.77;0.60;;;;;;;10.39;46.85;98940.41;5060831;23;20063;-74
2024/03/29 09:58:58;;;;;;;0.93;0.60;;;;;;;10.48;46.25;98943.94;5016169;28;20034;-75
2024/03/29 10:01:25;;;;;;;1.17;0.60;;;;;;;10.54;46.24;98938.63;5011560;28;20049;-75
2024/03/29 10:03:54;;;;;;;2.30;0.60;;;;;;;10.62;46.35;98939.59;4993330;28;20416;-74
2024/03/29 10:06:22;;;;;;;1.00;0.60;;;;;;;10.67;46.21;98948.09;4990113;28;20033;-75
2024/03/29 10:08:49;;;;;;;1.23;0.52;;;;;;;10.71;46.21;98955.78;5011284;28;20034;-75
2024/03/29 10:11:18;;;;;;;1.13;0.60;;;;;;;10.76;46.21;98963.44;4994866;28;20057;-74
2024/03/29 10:13:46;;;;;;;1.20;0.60;;;;;;;10.81;46.40;98959.09;4991319;28;20505;-74
2024/03/29 10:16:18;;;;;;;1.88;0.60;;;;;;;10.85;46.31;98965.94;5001792;28;20042;-74
2024/03/29 10:18:48;;;;;;;1.40;0.80;;;;;;;10.91;46.30;98972.53;5011218;28;20389;-74
2024/03/29 10:21:16;;;;;;;1.15;0.70;;;;;;;10.95;46.64;98966.53;5007607;28;20052;-75
2024/03/29 10:23:43;;;;;;;0.82;0.47;;;;;;;10.99;46.53;98965.13;4993166;28;20512;-74
2024/03/29 10:26:12;;;;;;;0.68;0.40;;;;;;;11.05;46.32;98970.94;5028271;28;20179;-74
2024/03/29 10:28:40;;;;;;;1.23;0.50;;;;;;;11.10;46.59;98982.16;5011875;28;20038;-75
2024/03/29 10:31:08;;;;;;;0.88;0.55;;;;;;;11.14;46.30;98976.13;5028008;28;20045;-75
2024/03/29 10:33:36;;;;;;;1.20;0.63;;;;;;;11.18;46.09;98985.69;5025096;28;20414;-75
2024/03/29 10:36:05;;;;;;;1.00;0.60;;;;;;;11.22;46.21;98984.31;5027871;28;20041;-75
2024/03/29 10:38:32;;;;;;;1.63;0.63;;;;;;;11.25;45.79;98970.22;5011694;28;20041;-74
2024/03/29 10:41:00;;;;;;;0.82;0.50;;;;;;;11.30;45.72;98965.06;5011715;28;20408;-75
2024/03/29 10:43:28;;;;;;;0.65;0.40;;;;;;;11.34;45.60;98966.38;5025942;28;20037;-74
2024/03/29 10:45:59;;;;;;;1.90;0.70;;;;;;;11.39;45.69;98967.72;5012393;28;20353;-75
2024/03/29 10:48:28;;;;;;;1.48;0.60;;;;;;;11.44;45.73;98968.00;5021360;28;20037;-74
2024/03/29 10:50:57;;;;;;;1.27;0.57;;;;;;;11.46;45.50;98977.75;5026719;28;20059;-74
2024/03/29 10:53:25;;;;;;;1.05;0.52;;;;;;;11.51;45.70;98980.75;5004262;28;20041;-74
2024/03/29 10:55:55;;;;;;;1.35;0.50;;;;;;;11.57;45.88;98979.16;5008205;28;20056;-74
2024/03/29 10:58:26;;;;;;;1.13;0.63;;;;;;;11.62;45.67;98982.25;5005873;28;20064;-74
2024/03/29 11:00:58;;;;;;;0.80;0.40;;;;;;;11.68;45.67;98978.75;5024177;28;20033;-74
2024/03/29 11:03:33;;;;;;;1.58;0.60;;;;;;;11.74;45.08;98967.88;5026763;28;20417;-74
2024/03/29 11:06:04;;;;;;;2.47;0.40;;;;;;;11.80;45.34;98979.97;5025588;28;20049;-75
2024/03/29 11:08:34;;;;;;;0.93;0.30;;;;;;;11.86;45.41;98968.28;5014465;28;20094;-75
2024/03/29 11:11:05;;;;;;;2.63;0.60;;;;;;;11.90;44.98;98963.25;5025781;28;20038;-74
2024/03/29 11:13:36;;;;;;;2.17;0.50;;;;;;;11.96;45.16;98957.03;5027301;28;20060;-74
2024/03/29 11:16:04;;;;;;;1.42;0.65;;;;;;;11.98;44.75;98955.78;5028252;28;20467;-74
2024/03/29 11:18:35;;;;;;;1.27;0.70;;;;;;;12.06;44.79;98968.53;5010604;28;20052;-74
2024/03/29 11:21:05;;;;;;;1.00;0.70;;;;;;;12.10;44.61;98981.69;5010629;28;20177;-75
2024/03/29 11:23:33;;;;;;;1.70;0.70;;;;;;;12.15;44.83;98983.00;5010842;28;20046;-74
2024/03/29 11:26:00;;;;;;;1.02;0.55;;;;;;;12.22;44.75;98989.44;5007530;28;20410;-75
2024/03/29 11:28:31;;;;;;;1.15;0.80;;;;;;;12.27;44.45;98989.72;5027241;28;20124;-74
2024/03/29 11:31:04;;;;;;;0.63;0.47;;;;;;;12.32;43.48;98999.06;5008279;28;20041;-74
2024/03/29 11:33:34;;;;;;;1.13;0.40;;;;;;;12.36;43.55;98999.56;5024868;28;20408;-74
2024/03/29 11:36:02;;;;;;;0.38;0.30;;;;;;;12.41;43.50;98997.06;5026003;28;20121;-74
2024/03/29 11:38:34;;;;;;;0.50;0.30;;;;;;;12.48;43.35;99003.50;5025607;28;20080;-74
2024/03/29 11:41:06;;;;;;;0.77;0.30;;;;;;;12.50;43.14;99006.91;5010451;28;20037;-74
2024/03/29 11:43:34;;;;;;;0.65;0.28;;;;;;;12.53;43.41;98986.47;5027410;28;20044;-74
2024/03/29 11:46:01;;;;;;;1.65;0.40;;;;;;;12.61;43.25;98983.63;5011131;28;20104;-74
2024/03/29 11:48:29;;;;;;;1.20;0.40;;;;;;;12.64;42.64;98964.88;5010395;28;20041;-74
2024/03/29 11:50:58;;;;;;;1.00;0.50;;;;;;;12.70;42.87;98975.09;5025666;28;20385;-74
2024/03/29 11:53:27;;;;;;;1.30;0.32;;;;;;;12.73;42.40;99004.91;5011356;28;20050;-75
2024/03/29 11:55:54;;;;;;;1.48;0.45;;;;;;;12.77;42.33;99022.69;5010253;28;20052;-74
2024/03/29 11:58:23;;;;;;;2.38;0.60;;;;;;;12.83;42.60;99030.16;5022124;28;20040;-74
2024/03/29 12:00:50;;;;;;;1.60;0.57;;;;;;;12.86;42.20;99021.53;5010561;28;20045;-74
2024/03/29 12:03:18;;;;;;;1.60;0.57;;;;;;;12.91;42.02;99042.91;5025837;28;20038;-74
2024/03/29 12:05:45;;;;;;;0.77;0.50;;;;;;;12.94;42.05;99045.28;5024546;28;20164;-74
2024/03/29 12:08:13;;;;;;;1.20;0.80;;;;;;;12.98;41.64;99054.81;5023263;28;20045;-74
2024/03/29 12:10:40;;;;;;;1.05;0.55;;;;;;;12.99;42.05;99062.00;5024475;28;20041;-74
2024/03/29 12:13:08;;;;;;;1.08;0.47;;;;;;;13.03;41.87;99062.50;5026383;28;20048;-74
2024/03/29 12:15:35;;;;;;;0.50;0.50;;;;;;;13.05;41.78;99057.63;5027118;28;20448;-74
2024/03/29 12:18:05;;;;;;;0.73;0.40;;;;;;;13.07;41.83;99066.53;5010181;28;20056;-74
2024/03/29 12:20:32;;;;;;;0.47;0.47;;;;;;;13.07;41.70;99078.38;5016673;28;20533;-74
2024/03/29 12:23:01;;;;;;;2.80;0.70;;;;;;;13.08;41.14;99077.34;5025478;28;20060;-75
2024/03/29 12:25:30;;;;;;;1.73;0.50;;;;;;;13.08;41.39;99073.72;5026383;28;20582;-73
2024/03/29 12:27:58;;;;;;;1.58;0.50;;;;;;;13.08;40.91;99076.47;5023543;28;20041;-74
2024/03/29 12:30:25;;;;;;;0.95;0.50;;;;;;;13.08;41.27;99071.84;5027117;28;20045;-74
2024/03/29 12:33:02;;;;;;;0.88;0.60;;;;;;;13.09;40.22;99073.53;5025128;28;20088;-74
2024/03/29 12:35:29;;;;;;;1.58;0.60;;;;;;;13.08;41.19;99068.25;5008532;28;20053;-74
2024/03/29 12:37:59;;;;;;;0.40;0.40;;;;;;;13.09;40.36;99078.19;5009023;28;20053;-73
2024/03/29 12:40:29;;;;;;;1.30;0.40;;;;;;;13.09;40.49;99080.94;5008479;28;20048;-74
2024/03/29 12:42:57;;;;;;;0.82;0.50;;;;;;;13.07;40.34;99083.88;5013833;28;20041;-75
2024/03/29 12:45:26;;;;;;;0.95;0.52;;;;;;;13.08;40.37;99076.47;5031113;28;20038;-74
2024/03/29 12:47:54;;;;;;;1.20;0.30;;;;;;;13.07;40.38;99081.13;5028833;28;20496;-74
2024/03/29 12:50:26;;;;;;;0.40;0.38;;;;;;;13.09;40.54;99083.69;5031047;28;20427;-74
2024/03/29 12:52:55;;;;;;;1.55;0.60;;;;;;;13.06;40.98;99076.66;5026776;28;20981;-75
2024/03/29 12:55:23;;;;;;;1.25;0.60;;;;;;;13.07;41.00;99075.63;5018078;28;20445;-74
2024/03/29 12:57:53;;;;;;;0.73;0.50;;;;;;;13.09;40.61;99081.78;5006000;28;20042;-74
2024/03/29 13:00:20;;;;;;;0.52;0.40;;;;;;;13.08;40.86;99093.81;5013127;28;20042;-74
2024/03/29 13:02:47;;;;;;;1.05;0.50;;;;;;;13.08;40.81;99073.72;5030866;28;20516;-74
2024/03/29 13:05:14;;;;;;;2.22;0.60;;;;;;;13.08;40.84;99069.09;5007727;28;20030;-74
2024/03/29 13:07:42;;;;;;;0.75;0.50;;;;;;;13.10;40.87;99067.00;5030423;28;20513;-74
2024/03/29 13:10:13;;;;;;;1.17;0.50;;;;;;;13.11;40.19;99071.47;5028142;28;20504;-74
2024/03/29 13:12:42;;;;;;;1.35;0.50;;;;;;;13.14;40.57;99073.81;5028961;28;20046;-75
2024/03/29 13:15:19;;;;;;;1.10;0.40;;;;;;;13.17;39.58;99076.16;5013319;28;20440;-74
2024/03/29 13:17:46;;;;;;;0.32;0.32;;;;;;;13.17;40.50;99083.56;5028769;28;20045;-74
2024/03/29 13:20:15;;;;;;;0.85;0.43;;;;;;;13.19;40.30;99086.97;5032142;28;20052;-74
2024/03/29 13:22:44;;;;;;;1.15;0.50;;;;;;;13.20;39.81;99088.69;5028263;28;20493;-74
2024/03/29 13:25:11;;;;;;;1.13;0.40;;;;;;;13.21;40.11;99090.34;5010857;28;20069;-74
2024/03/29 13:27:38;;;;;;;0.52;0.38;;;;;;;13.24;39.87;99089.97;5007288;28;20041;-74
2024/03/29 13:30:06;;;;;;;1.88;0.50;;;;;;;13.27;39.98;99091.50;5031353;28;20095;-74
2024/03/29 13:32:35;;;;;;;0.63;0.40;;;;;;;13.29;39.93;99092.97;5026197;28;20105;-74
2024/03/29 13:35:05;;;;;;;1.20;0.50;;;;;;;13.30;40.52;99102.06;5030832;28;20095;-74
2024/03/29 13:37:32;;;;;;;1.08;0.70;;;;;;;13.35;40.15;99105.97;5027121;28;20127;-74
2024/03/29 13:39:59;;;;;;;0.90;0.55;;;;;;;13.39;40.30;99112.75;5007648;28;20049;-74
2024/03/29 13:42:26;;;;;;;1.33;0.55;;;;;;;13.45;40.88;99122.94;5027183;28;20416;-75
2024/03/29 13:44:53;;;;;;;0.73;0.40;;;;;;;13.51;40.86;99116.69;5011763;28;20037;-75
2024/03/29 13:47:20;;;;;;;0.93;0.57;;;;;;;13.56;40.42;99116.09;5026857;28;20080;-74
2024/03/29 13:49:52;;;;;;;1.30;0.65;;;;;;;13.62;40.12;99112.59;5026270;28;20129;-74
2024/03/29 13:52:19;;;;;;;0.93;0.67;;;;;;;13.62;40.44;99091.44;5025424;28;20581;-74
2024/03/29 13:54:47;;;;;;;1.83;0.80;;;;;;;13.68;40.04;99098.06;5021111;28;20307;-74
2024/03/29 13:57:14;;;;;;;0.82;0.52;;;;;;;13.73;40.31;99086.47;5023208;28;20092;-74
2024/03/29 13:59:43;;;;;;;0.73;0.40;;;;;;;13.77;40.28;99090.53;5001364;28;20433;-75
2024/03/29 14:02:10;;;;;;;0.80;0.50;;;;;;;13.81;39.96;99095.44;5024757;28;20060;-74
2024/03/29 14:04:36;;;;;;;0.43;0.40;;;;;;;13.87;39.36;99089.13;5025104;28;20033;-75
2024/03/29 14:07:07;;;;;;;0.47;0.35;;;;;;;13.95;38.92;99088.13;5025098;28;20550;-75
2024/03/29 14:09:36;;;;;;;0.68;0.30;;;;;;;14.00;39.20;99070.00;5012081;28;20041;-74
2024/03/29 14:12:04;;;;;;;0.30;0.30;;;;;;;14.05;39.14;99069.41;5021064;28;20087;-74
2024/03/29 14:14:30;;;;;;;1.50;0.45;;;;;;;14.11;39.08;99070.47;5014761;28;20079;-74
2024/03/29 14:16:58;;;;;;;0.65;0.30;;;;;;;14.17;38.55;99065.06;5005514;28;20037;-75
2024/03/29 14:19:26;;;;;;;1.33;0.30;;;;;;;14.23;38.77;99058.72;5035430;28;20041;-75
2024/03/29 14:21:53;;;;;;;0.85;0.40;;;;;;;14.26;38.34;99066.59;5025008;28;20041;-75
2024/03/29 14:24:24;;;;;;;1.00;0.50;;;;;;;14.32;38.18;99063.03;5025743;28;20052;-74
2024/03/29 14:26:51;;;;;;;0.60;0.32;;;;;;;14.35;38.03;99065.34;5001489;28;20052;-74
2024/03/29 14:29:20;;;;;;;0.93;0.40;;;;;;;14.39;38.06;99083.19;5031380;28;20038;-74
2024/03/29 14:31:48;;;;;;;0.88;0.38;;;;;;;14.44;37.55;99087.22;5026522;28;20037;-74
2024/03/29 14:34:15;;;;;;;0.60;0.30;;;;;;;14.47;37.49;99106.09;5015573;28;20045;-74
2024/03/29 14:36:41;;;;;;;1.02;0.40;;;;;;;14.49;37.36;99104.03;5024180;28;20048;-74
2024/03/29 14:39:08;;;;;;;0.68;0.32;;;;;;;14.51;37.87;99100.03;5028540;28;20425;-73
2024/03/29 14:41:39;;;;;;;1.23;0.50;;;;;;;14.56;37.84;99099.41;5026350;28;20040;-73
2024/03/29 14:44:07;;;;;;;0.30;0.30;;;;;;;14.55;37.92;99093.03;5005450;28;20103;-74
2024/03/29 14:46:35;;;;;;;0.40;0.30;;;;;;;14.58;37.38;99097.31;5024480;28;20036;-73
2024/03/29 14:49:04;;;;;;;0.70;0.40;;;;;;;14.60;37.83;99079.50;5024575;28;20410;-73
2024/03/29 14:51:32;;;;;;;0.30;0.30;;;;;;;14.61;37.26;99092.22;5024428;28;20567;-73
2024/03/29 14:53:59;;;;;;;0.52;0.22;;;;;;;14.63;37.37;99086.53;5022078;28;20041;-74
2024/03/29 14:56:26;;;;;;;0.68;0.32;;;;;;;14.64;37.33;99085.47;5023713;28;20034;-74
2024/03/29 14:58:54;;;;;;;0.77;0.57;;;;;;;14.67;37.44;99096.09;5024802;28;20041;-74
2024/03/29 15:01:21;;;;;;;1.25;0.40;;;;;;;14.65;36.95;99089.94;5005335;28;20049;-73
2024/03/29 15:03:48;;;;;;;0.32;0.30;;;;;;;14.65;37.04;99090.78;5024230;28;20037;-73
2024/03/29 15:06:15;;;;;;;0.68;0.30;;;;;;;14.64;37.41;99094.59;5010940;28;20053;-73
2024/03/29 15:08:42;;;;;;;0.60;0.40;;;;;;;14.64;37.24;99102.00;5022917;28;20049;-74
2024/03/29 15:11:09;;;;;;;0.45;0.28;;;;;;;14.63;37.32;99095.63;5008474;28;20103;-73
2024/03/29 15:13:36;;;;;;;2.22;0.30;;;;;;;14.60;37.44;99101.53;5006884;28;20056;-73
2024/03/29 15:16:06;;;;;;;0.73;0.40;;;;;;;14.60;37.75;99104.28;5024738;28;20045;-73
2024/03/29 15:18:33;;;;;;;1.48;0.40;;;;;;;14.56;37.33;99102.16;5002842;28;20033;-73
2024/03/29 15:21:02;;;;;;;0.40;0.32;;;;;;;14.54;37.41;99102.34;5024091;28;20531;-73
2024/03/29 15:23:29;;;;;;;0.40;0.40;;;;;;;14.51;37.55;99111.03;5015545;28;20042;-74
2024/03/29 15:25:59;;;;;;;0.98;0.43;;;;;;;14.51;37.31;99104.69;4998422;28;20041;-74